createdAt,value
2023-03-15T00:00:57.354Z,10.61
2023-03-15T00:03:59.402Z,10.64
2023-03-15T00:07:01.060Z,10.67
2023-03-15T00:10:02.660Z,10.70
2023-03-15T00:13:04.101Z,10.63
2023-03-15T00:16:06.327Z,10.65
2023-03-15T00:19:07.873Z,10.74
2023-03-15T00:22:09.655Z,10.65
2023-03-15T00:25:11.317Z,10.62
2023-03-15T00:28:14.043Z,10.55
2023-03-15T00:31:18.986Z,10.57
2023-03-15T00:34:24.541Z,10.65
2023-03-15T00:37:30.308Z,10.69
2023-03-15T00:40:31.828Z,10.53
2023-03-15T00:43:33.603Z,10.54
2023-03-15T00:46:35.152Z,10.54
2023-03-15T00:49:36.876Z,10.50
2023-03-15T00:52:38.891Z,10.48
2023-03-15T00:55:42.579Z,10.44
2023-03-15T00:58:44.666Z,10.50
2023-03-15T01:01:46.229Z,10.32
2023-03-15T01:04:48.909Z,9.91
2023-03-15T01:07:52.363Z,9.70
2023-03-15T01:10:53.868Z,9.57
2023-03-15T01:13:58.605Z,9.61
2023-03-15T01:17:00.312Z,9.91
2023-03-15T01:20:05.437Z,9.76
2023-03-15T01:23:06.907Z,9.49
2023-03-15T01:26:12.748Z,9.37
2023-03-15T01:29:14.937Z,9.52
2023-03-15T01:32:16.516Z,9.58
2023-03-15T01:35:18.201Z,9.62
2023-03-15T01:38:19.799Z,9.61
2023-03-15T01:41:21.566Z,9.67
2023-03-15T01:44:24.125Z,9.68
2023-03-15T01:47:26.460Z,9.64
2023-03-15T01:50:31.008Z,9.61
2023-03-15T01:53:33.728Z,9.53
2023-03-15T01:56:39.730Z,9.25
2023-03-15T01:59:46.375Z,9.19
2023-03-15T02:02:58.059Z,9.29
2023-03-15T02:06:08.311Z,8.85
2023-03-15T02:09:19.675Z,8.90
2023-03-15T02:12:22.309Z,8.80
2023-03-15T02:15:24.228Z,8.95
2023-03-15T02:18:26.264Z,9.07
2023-03-15T02:21:40.327Z,9.04
2023-03-15T02:25:13.437Z,9.16
2023-03-15T02:28:16.399Z,9.17
2023-03-15T02:31:18.127Z,9.03
2023-03-15T02:34:19.619Z,8.72
2023-03-15T02:37:22.826Z,8.75
2023-03-15T02:40:27.842Z,8.62
2023-03-15T02:43:32.196Z,8.47
2023-03-15T02:46:34.429Z,8.45
2023-03-15T02:49:41.022Z,8.41
2023-03-15T02:52:43.489Z,8.41
2023-03-15T02:55:45.106Z,8.45
2023-03-15T02:58:46.791Z,8.70
2023-03-15T03:01:49.191Z,8.67
2023-03-15T03:04:52.636Z,8.72
2023-03-15T03:07:54.321Z,8.71
2023-03-15T03:10:56.126Z,8.66
2023-03-15T03:13:58.401Z,8.64
2023-03-15T03:17:00.125Z,8.64
2023-03-15T03:20:02.084Z,8.70
2023-03-15T03:23:09.521Z,8.72
2023-03-15T03:26:16.799Z,8.70
2023-03-15T03:29:19.687Z,8.73
2023-03-15T03:32:23.383Z,8.72
2023-03-15T03:35:26.912Z,8.67
2023-03-15T03:38:29.973Z,8.58
2023-03-15T03:41:34.644Z,8.46
2023-03-15T03:44:36.817Z,8.17
2023-03-15T03:47:38.412Z,7.91
2023-03-15T03:50:39.934Z,8.00
2023-03-15T03:53:41.450Z,7.94
2023-03-15T03:56:43.054Z,7.97
2023-03-15T03:59:45.057Z,7.98
2023-03-15T04:02:47.009Z,7.92
2023-03-15T04:05:52.824Z,8.07
2023-03-15T04:08:56.748Z,8.05
2023-03-15T04:12:07.448Z,8.07
2023-03-15T04:15:12.198Z,8.06
2023-03-15T04:18:15.000Z,8.09
2023-03-15T04:21:23.018Z,8.05
2023-03-15T04:24:27.694Z,7.86
2023-03-15T04:27:37.701Z,8.04
2023-03-15T04:30:50.268Z,7.97
2023-03-15T04:34:10.433Z,7.93
2023-03-15T04:37:34.202Z,7.97
2023-03-15T04:40:48.435Z,7.95
2023-03-15T04:43:59.894Z,7.88
2023-03-15T04:47:22.711Z,7.91
2023-03-15T04:50:53.225Z,7.68
2023-03-15T04:54:03.705Z,8.02
2023-03-15T04:57:28.854Z,8.03
2023-03-15T05:00:39.383Z,8.05
2023-03-15T05:03:59.983Z,8.10
2023-03-15T05:07:30.790Z,8.08
2023-03-15T05:10:51.815Z,8.10
2023-03-15T05:14:13.810Z,8.06
2023-03-15T05:17:28.930Z,8.06
2023-03-15T05:20:49.732Z,7.60
2023-03-15T05:24:04.707Z,7.72
2023-03-15T05:27:26.219Z,7.88
2023-03-15T05:30:48.240Z,7.90
2023-03-15T05:33:56.602Z,7.90
2023-03-15T05:37:19.193Z,7.87
2023-03-15T05:40:34.560Z,7.52
2023-03-15T05:43:59.069Z,7.27
2023-03-15T05:47:19.336Z,7.18
2023-03-15T05:50:37.359Z,7.20
2023-03-15T05:54:14.018Z,6.93
2023-03-15T05:57:47.863Z,7.01
2023-03-15T06:00:57.931Z,7.09
2023-03-15T06:04:19.082Z,7.09
2023-03-15T06:07:21.253Z,7.09
2023-03-15T06:10:22.995Z,7.04
2023-03-15T06:13:25.798Z,6.97
2023-03-15T06:16:27.860Z,7.08
2023-03-15T06:19:32.125Z,7.19
2023-03-15T06:22:34.921Z,7.31
2023-03-15T06:25:43.337Z,7.35
2023-03-15T06:28:45.663Z,7.44
2023-03-15T06:31:49.507Z,7.56
2023-03-15T06:34:51.903Z,7.71
2023-03-15T06:37:54.441Z,7.88
2023-03-15T06:40:58.354Z,8.06
2023-03-15T06:44:00.381Z,8.15
2023-03-15T06:47:02.167Z,8.16
2023-03-15T06:50:04.566Z,8.12
2023-03-15T06:53:07.120Z,8.04
2023-03-15T06:56:08.679Z,8.07
2023-03-15T06:59:10.315Z,8.20
2023-03-15T07:02:17.480Z,8.45
2023-03-15T07:05:19.316Z,8.67
2023-03-15T07:08:22.328Z,8.76
2023-03-15T07:11:23.850Z,8.71
2023-03-15T07:14:25.376Z,8.86
2023-03-15T07:17:26.896Z,8.84
2023-03-15T07:20:28.500Z,8.95
2023-03-15T07:23:30.856Z,8.96
2023-03-15T07:26:32.355Z,8.95
2023-03-15T07:29:33.938Z,9.08
2023-03-15T07:32:35.488Z,9.06
2023-03-15T07:35:37.025Z,9.54
2023-03-15T07:38:38.665Z,9.44
2023-03-15T07:41:40.219Z,9.50
2023-03-15T07:44:50.011Z,9.18
2023-03-15T07:47:51.633Z,9.11
2023-03-15T07:50:53.174Z,9.23
2023-03-15T07:53:54.692Z,9.23
2023-03-15T07:56:56.196Z,9.31
2023-03-15T07:59:58.588Z,9.41
2023-03-15T08:03:00.421Z,9.36
2023-03-15T08:06:02.076Z,9.73
2023-03-15T08:09:05.677Z,10.03
2023-03-15T08:12:07.566Z,10.01
2023-03-15T08:15:14.145Z,10.05
2023-03-15T08:18:15.664Z,10.08
2023-03-15T08:21:17.192Z,10.05
2023-03-15T08:24:18.642Z,10.62
2023-03-15T08:27:20.087Z,10.89
2023-03-15T08:30:22.092Z,10.52
2023-03-15T08:33:23.616Z,10.64
2023-03-15T08:36:25.101Z,10.51
2023-03-15T08:39:26.624Z,10.58
2023-03-15T08:42:28.088Z,10.93
2023-03-15T08:45:30.466Z,10.65
2023-03-15T08:48:32.137Z,10.79
2023-03-15T08:51:33.756Z,10.88
2023-03-15T08:54:35.258Z,10.78
2023-03-15T08:57:36.892Z,10.89
2023-03-15T09:00:38.462Z,11.07
2023-03-15T09:03:40.066Z,11.25
2023-03-15T09:06:42.242Z,11.28
2023-03-15T09:09:48.075Z,11.31
2023-03-15T09:12:53.519Z,11.18
2023-03-15T09:15:57.004Z,11.06
2023-03-15T09:18:58.632Z,11.26
2023-03-15T09:22:10.986Z,11.45
2023-03-15T09:25:23.524Z,11.29
2023-03-15T09:28:26.471Z,11.48
2023-03-15T09:31:28.008Z,11.49
2023-03-15T09:34:33.298Z,11.40
2023-03-15T09:37:42.424Z,11.46
2023-03-15T09:40:46.106Z,10.81
2023-03-15T09:44:05.369Z,11.03
2023-03-15T09:47:35.138Z,11.10
2023-03-15T09:50:46.340Z,11.80
2023-03-15T09:54:10.022Z,11.99
2023-03-15T09:57:23.391Z,12.41
2023-03-15T10:00:39.979Z,12.60
2023-03-15T10:03:49.175Z,12.59
2023-03-15T10:06:56.215Z,12.41
2023-03-15T10:09:58.992Z,12.85
2023-03-15T10:13:19.674Z,13.15
2023-03-15T10:16:32.176Z,13.19
2023-03-15T10:19:45.855Z,13.21
2023-03-15T10:23:02.909Z,13.25
2023-03-15T10:26:08.825Z,13.27
2023-03-15T10:29:16.690Z,12.82
2023-03-15T10:32:22.019Z,12.69
2023-03-15T10:35:23.571Z,12.55
2023-03-15T10:38:26.258Z,12.26
2023-03-15T10:41:36.031Z,12.28
2023-03-15T10:44:38.189Z,12.32
2023-03-15T10:47:50.386Z,12.33
2023-03-15T10:50:57.556Z,12.57
2023-03-15T10:54:06.989Z,12.54
2023-03-15T10:57:17.302Z,12.62
2023-03-15T11:00:23.909Z,12.89
2023-03-15T11:03:26.427Z,12.98
2023-03-15T11:06:28.959Z,13.10
2023-03-15T11:09:53.784Z,13.04
2023-03-15T11:13:20.648Z,12.98
2023-03-15T11:16:22.238Z,13.26
2023-03-15T11:19:28.098Z,12.93
2023-03-15T11:22:30.131Z,13.23
2023-03-15T11:25:33.247Z,12.87
2023-03-15T11:28:37.497Z,13.02
2023-03-15T11:31:39.274Z,13.82
2023-03-15T11:34:58.703Z,13.81
2023-03-15T11:38:25.989Z,13.61
2023-03-15T11:41:42.751Z,15.51
2023-03-15T11:44:50.452Z,15.74
2023-03-15T11:47:56.589Z,15.58
2023-03-15T11:50:59.469Z,15.67
2023-03-15T11:54:00.858Z,15.66
2023-03-15T11:57:06.255Z,15.39
2023-03-15T12:00:47.176Z,16.62
2023-03-15T12:03:49.345Z,16.42
2023-03-15T12:06:55.196Z,16.75
2023-03-15T12:09:57.759Z,16.70
2023-03-15T12:13:08.051Z,16.54
2023-03-15T12:16:11.366Z,16.63
2023-03-15T12:19:17.831Z,16.78
2023-03-15T12:22:19.990Z,17.13
2023-03-15T12:25:54.413Z,16.61
2023-03-15T12:29:15.689Z,16.70
2023-03-15T12:32:18.557Z,16.29
2023-03-15T12:35:22.613Z,14.44
2023-03-15T12:38:24.393Z,15.58
2023-03-15T12:41:41.852Z,16.15
2023-03-15T12:44:43.824Z,16.12
2023-03-15T12:47:46.592Z,15.93
2023-03-15T12:50:48.052Z,15.69
2023-03-15T12:53:50.653Z,15.57
2023-03-15T12:56:59.886Z,15.46
2023-03-15T13:00:06.556Z,15.52
2023-03-15T13:03:11.150Z,15.68
2023-03-15T13:06:29.273Z,15.40
2023-03-15T13:10:07.027Z,17.24
2023-03-15T13:13:28.566Z,17.11
2023-03-15T13:16:44.989Z,17.50
2023-03-15T13:19:54.484Z,17.67
2023-03-15T13:23:18.643Z,17.84
2023-03-15T13:26:41.042Z,18.44
2023-03-15T13:29:42.644Z,17.56
2023-03-15T13:32:44.275Z,17.58
2023-03-15T13:35:48.897Z,17.63
2023-03-15T13:38:53.118Z,17.74
2023-03-15T13:42:24.173Z,18.28
2023-03-15T13:45:25.704Z,19.03
2023-03-15T13:48:35.643Z,18.24
2023-03-15T13:51:38.913Z,17.87
2023-03-15T13:54:41.674Z,17.51
2023-03-15T13:57:43.537Z,17.67
2023-03-15T14:00:47.227Z,17.88
2023-03-15T14:03:57.148Z,17.77
2023-03-15T14:07:48.433Z,17.68
2023-03-15T14:11:10.055Z,18.08
2023-03-15T14:14:24.600Z,18.34
2023-03-15T14:17:28.848Z,17.89
2023-03-15T14:20:41.093Z,17.62
2023-03-15T14:23:45.615Z,18.15
2023-03-15T14:26:53.571Z,18.76
2023-03-15T14:29:58.214Z,18.95
2023-03-15T14:33:03.625Z,19.07
2023-03-15T14:36:09.911Z,18.59
2023-03-15T14:39:27.853Z,18.75
2023-03-15T14:42:29.288Z,18.88
2023-03-15T14:45:32.423Z,18.88
2023-03-15T14:48:34.106Z,18.28
2023-03-15T14:51:35.701Z,18.35
2023-03-15T14:54:37.154Z,18.39
2023-03-15T14:57:38.642Z,18.32
2023-03-15T15:00:41.209Z,18.64
2023-03-15T15:03:51.324Z,18.58
2023-03-15T15:06:55.300Z,18.89
2023-03-15T15:09:56.844Z,18.66
2023-03-15T15:13:06.086Z,18.51
2023-03-15T15:16:08.870Z,18.54
2023-03-15T15:19:11.164Z,18.93
2023-03-15T15:22:12.614Z,18.34
2023-03-15T15:25:19.493Z,18.41
2023-03-15T15:28:34.121Z,18.90
2023-03-15T15:31:36.730Z,18.80
2023-03-15T15:34:38.300Z,17.96
2023-03-15T15:37:40.629Z,16.93
2023-03-15T15:40:42.298Z,17.09
2023-03-15T15:43:44.090Z,16.85
2023-03-15T15:46:45.649Z,17.04
2023-03-15T15:49:47.191Z,16.82
2023-03-15T15:52:52.889Z,16.24
2023-03-15T15:55:54.356Z,12.58
2023-03-15T15:58:57.399Z,12.12
2023-03-15T16:02:02.081Z,15.56
2023-03-15T16:05:04.265Z,15.93
2023-03-15T16:08:06.872Z,15.87
2023-03-15T16:11:08.469Z,15.77
2023-03-15T16:14:12.672Z,15.81
2023-03-15T16:17:17.943Z,15.61
2023-03-15T16:20:20.026Z,15.72
2023-03-15T16:23:24.476Z,15.78
2023-03-15T16:26:26.025Z,15.93
2023-03-15T16:29:36.381Z,15.88
2023-03-15T16:32:44.353Z,15.87
2023-03-15T16:35:50.099Z,16.11
2023-03-15T16:38:51.848Z,16.04
2023-03-15T16:41:53.384Z,15.95
2023-03-15T16:44:54.892Z,16.05
2023-03-15T16:47:56.616Z,15.88
2023-03-15T16:50:58.221Z,15.72
2023-03-15T16:54:15.011Z,15.43
2023-03-15T16:57:21.890Z,15.07
2023-03-15T17:00:24.570Z,14.97
2023-03-15T17:03:27.699Z,14.81
2023-03-15T17:06:31.373Z,14.76
2023-03-15T17:09:33.067Z,14.74
2023-03-15T17:12:36.176Z,14.65
2023-03-15T17:15:37.707Z,14.61
2023-03-15T17:18:39.312Z,14.62
2023-03-15T17:21:41.976Z,14.62
2023-03-15T17:24:43.652Z,14.58
2023-03-15T17:27:46.827Z,14.55
2023-03-15T17:30:49.776Z,14.51
2023-03-15T17:33:53.028Z,14.41
2023-03-15T17:36:55.886Z,14.34
2023-03-15T17:39:58.102Z,14.20
2023-03-15T17:43:02.129Z,14.08
2023-03-15T17:46:03.647Z,14.12
2023-03-15T17:49:06.294Z,14.04
2023-03-15T17:52:17.653Z,13.86
2023-03-15T17:55:22.858Z,13.81
2023-03-15T17:58:26.944Z,13.77
2023-03-15T18:01:29.053Z,13.67
2023-03-15T18:04:30.983Z,13.63
2023-03-15T18:07:32.435Z,13.55
2023-03-15T18:10:36.896Z,13.55
2023-03-15T18:13:38.355Z,13.70
2023-03-15T18:16:39.989Z,13.72
2023-03-15T18:19:41.547Z,13.60
2023-03-15T18:22:43.116Z,13.56
2023-03-15T18:25:44.850Z,13.50
2023-03-15T18:28:48.959Z,13.39
2023-03-15T18:31:50.552Z,13.34
2023-03-15T18:34:53.972Z,13.27
2023-03-15T18:37:57.399Z,13.21
2023-03-15T18:40:59.254Z,13.22
2023-03-15T18:44:00.714Z,13.24
2023-03-15T18:47:02.326Z,13.29
2023-03-15T18:50:10.662Z,13.31
2023-03-15T18:53:12.934Z,13.29
2023-03-15T18:56:25.825Z,13.30
2023-03-15T18:59:27.395Z,13.34
2023-03-15T19:02:28.962Z,13.41
2023-03-15T19:05:34.264Z,13.40
2023-03-15T19:08:36.060Z,13.48
2023-03-15T19:11:41.663Z,13.51
2023-03-15T19:14:43.122Z,13.50
2023-03-15T19:17:45.591Z,13.44
2023-03-15T19:20:47.118Z,13.48
2023-03-15T19:23:48.712Z,13.45
2023-03-15T19:26:50.252Z,13.43
2023-03-15T19:29:52.002Z,13.47
2023-03-15T19:32:53.612Z,13.51
2023-03-15T19:35:55.234Z,13.50
2023-03-15T19:38:56.706Z,13.42
2023-03-15T19:41:58.226Z,13.42
2023-03-15T19:44:59.714Z,13.39
2023-03-15T19:48:01.237Z,13.33
2023-03-15T19:51:02.904Z,13.22
2023-03-15T19:54:04.822Z,13.22
2023-03-15T19:57:06.348Z,13.14
2023-03-15T20:00:14.244Z,13.03
2023-03-15T20:03:15.745Z,12.97
2023-03-15T20:06:17.316Z,12.87
2023-03-15T20:09:18.889Z,12.73
2023-03-15T20:12:20.662Z,12.71
2023-03-15T20:15:22.216Z,12.73
2023-03-15T20:18:23.791Z,12.69
2023-03-15T20:21:25.235Z,12.62
2023-03-15T20:24:26.842Z,12.53
2023-03-15T20:27:28.321Z,12.48
2023-03-15T20:30:30.144Z,12.42
2023-03-15T20:33:31.634Z,12.41
2023-03-15T20:36:33.574Z,12.10
2023-03-15T20:39:35.314Z,11.88
2023-03-15T20:42:37.207Z,11.69
2023-03-15T20:45:39.470Z,11.61
2023-03-15T20:48:41.663Z,11.53
2023-03-15T20:51:43.198Z,11.59
2023-03-15T20:54:44.680Z,11.59
2023-03-15T20:57:46.245Z,11.43
2023-03-15T21:00:49.261Z,11.39
2023-03-15T21:03:54.482Z,11.32
2023-03-15T21:06:56.199Z,11.31
2023-03-15T21:09:57.702Z,11.11
2023-03-15T21:12:59.558Z,10.94
2023-03-15T21:16:03.847Z,10.76
2023-03-15T21:19:07.720Z,10.63
2023-03-15T21:22:09.389Z,10.58
2023-03-15T21:25:11.395Z,10.49
2023-03-15T21:28:12.861Z,10.37
2023-03-15T21:31:15.455Z,10.15
2023-03-15T21:34:17.082Z,10.05
2023-03-15T21:37:18.683Z,9.95
2023-03-15T21:40:20.378Z,9.69
2023-03-15T21:43:21.889Z,9.66
2023-03-15T21:46:23.882Z,9.59
2023-03-15T21:49:25.428Z,9.54
2023-03-15T21:52:27.115Z,9.50
2023-03-15T21:55:31.875Z,9.50
2023-03-15T21:58:33.355Z,9.52
2023-03-15T22:01:35.443Z,9.58
2023-03-15T22:04:36.960Z,9.42
2023-03-15T22:07:39.915Z,9.42
2023-03-15T22:10:41.515Z,9.44
2023-03-15T22:13:43.112Z,9.47
2023-03-15T22:16:44.795Z,9.45
2023-03-15T22:19:46.405Z,9.35
2023-03-15T22:22:49.238Z,9.02
2023-03-15T22:25:52.821Z,8.97
2023-03-15T22:28:54.272Z,8.83
2023-03-15T22:31:55.789Z,8.73
2023-03-15T22:34:57.805Z,8.81
2023-03-15T22:37:59.314Z,8.93
2023-03-15T22:41:04.342Z,8.90
2023-03-15T22:44:05.921Z,8.97
2023-03-15T22:47:07.641Z,8.95
2023-03-15T22:50:13.210Z,8.85
2023-03-15T22:53:14.695Z,8.58
2023-03-15T22:56:16.883Z,8.39
2023-03-15T22:59:18.335Z,8.32
2023-03-15T23:02:19.802Z,8.16
2023-03-15T23:05:21.392Z,8.18
2023-03-15T23:08:23.447Z,8.26
2023-03-15T23:11:25.054Z,8.20
2023-03-15T23:14:26.579Z,8.12
2023-03-15T23:17:28.183Z,7.80
2023-03-15T23:20:30.156Z,7.76
2023-03-15T23:23:31.862Z,8.34
2023-03-15T23:26:37.685Z,8.40
2023-03-15T23:29:53.281Z,8.45
2023-03-15T23:32:59.609Z,8.40
2023-03-15T23:36:02.835Z,8.43
2023-03-15T23:39:05.385Z,8.43
2023-03-15T23:42:07.315Z,8.42
2023-03-15T23:45:09.972Z,8.13
2023-03-15T23:48:12.475Z,8.06
2023-03-15T23:51:14.012Z,8.10
2023-03-15T23:54:15.577Z,8.02
2023-03-15T23:57:17.442Z,7.75
